Google Maps JavaScript API Example
Pilot Flight Report # 93040 Submitted by : AST003 on 2019-06-15
Date: 2019-06-15Aircraft: DeHavilland DHC6 Twin Otter - Wheeled
Flight No.: Not AvailableDistance (Nm): 168.54
Departure: 14A - Lake NormanDestination: KCHS - Charleston AFB/Intl
 TimeFuelWeightSpeeds  
Out (Taxi)1210Z1447 lbs10233 lbs Flight RulesIFR
Off (Takeoff)1211Z 10228 lbs91 ktsFlight Level1200
On (Landing)1313Z 9437 lbs57 ktsVSTD-107 ft/min
In (Ramp)1313Z650 lbs9436 lbs ZFW8783 lbs
Flight1.00  -  1:02790 lbs  Pax0
Block1.05  -  1:03797 lbs  Cargo0
Departure Weather151310Z 33811KT 62SM SKC 15/11 A3013
Destination WeatherKCHS 151313Z 15808KT 52SM FEW044 FEW250 28/18 A3013
Flight Comments